Airfield :
LOGIN :

Register | Disclaimer

   EN    FR    IT 

 










Legend :    VFR   Marginal VFR   IFR   Intensive IFR   Very Intensive IFR
Visi :
Ceiling :
>= 8 km
>= 3000ft
5 to 8 km
1000 to 3000 ft
1500m to 5 km
500 to 1000 ft
800 to 1500m
200 to 500 ft
< 800m
< 200 ft
Symbols :   Thunderstorms  Fog  Heavy snow  Heavy precipitations  Wind > 20 kt
SIGMETs :     Misc.  Thunderstorms  Icing  Turbulence  Mountain Waves  Volcanic Ashes






- Airport Elevation : 70 ft
- IATA code : WBG


ETNS - Schleswig

CURRENT METAR :
  • 271520Z AUTO 26008KT //// // ////// 18/10 Q1016 ///

EXPIRED METARs :
  • 271511Z 27008KT 9999 FEW038 BKN090 18/10 Q1016 BLU FCST CNL
  • 271420Z 26010KT 9999 FEW038 SCT090 19/10 Q1016 BLU+BLU+ TEMPO BLU
  • 271320Z 27010G20KT 9999 FEW038 SCT110 20/11 Q1016 BLU+BLU+ TEMPO BLU
  • 271220Z 23009KT 9999 FEW038 SCT130 21/11 Q1016 BLU+BLU+ TEMPO BLU
  • 271120Z 25011KT 9999 FEW033 20/11 Q1016 BLU+BLU+ TEMPO BLU

TAF TAF ETNS
Valid from the 27 at 14:00 until the 27 at 23:00 UTC


271333Z 2714/2723 24010KT 9999 NSW FEW030 SCT060
TEMPO 2715/2718 28015KT 5000 SHRA SCT020 BKN030TCU



MET'MAP, your aeronautical weather chart ! - Copyright ORBIFLY December 2007 - Disclaimer

ORBIFLY MET'MAP TEAM :

Programming & Development : Alexandra Zaïnal
Original concept : Baudouin d'Aumeries
Technical & hardware support : Manuel Goepfert
Assistance : Marc-Olivier Méhu




SOURCES & CREDITS :

   NOAA